Terminal Aerodrome Forecast
Issued by NWS

Home | Current Version | Previous Version | Text Only | Print | Product List | Glossary Off
Versions: 1 2 3 4 5 6 7 8 9 10 11 12 13 14 15 16 17 18 19

986
FTUS43 KTOP 242320
TAFMHK
TAF
KMHK 242320Z 2500/2524 05009KT P6SM FEW060 SCT150
     FM250300 04005KT P6SM VCTS SCT060CB BKN150
     FM250900 05004KT P6SM BKN150
     FM251400 08008KT P6SM SCT200=

USA.gov is the U.S. government's official web portal to all federal, state and local government web resources and services.